createdAt,value
2019-05-25T00:00:13.069Z,21.2
2019-05-25T00:05:00.183Z,22.1
2019-05-25T00:09:48.481Z,20.7
2019-05-25T00:14:36.084Z,19.4
2019-05-25T00:19:25.568Z,18.3
2019-05-25T00:24:13.128Z,17.5
2019-05-25T00:29:00.770Z,16.9
2019-05-25T00:33:47.675Z,16.4
2019-05-25T00:38:35.020Z,16.1
2019-05-25T00:43:24.244Z,15.8
2019-05-25T00:48:11.570Z,15.7
2019-05-25T00:52:58.674Z,15.5
2019-05-25T00:57:45.622Z,15.5
2019-05-25T01:02:32.667Z,15.4
2019-05-25T01:06:33.272Z,18.3
2019-05-25T01:06:48.825Z,18.7
2019-05-25T01:07:04.362Z,19
2019-05-25T01:08:06.104Z,20.7
2019-05-25T01:12:53.059Z,21.6
2019-05-25T01:17:40.730Z,20.3
2019-05-25T01:22:27.436Z,18.9
2019-05-25T01:27:15.021Z,17.9
2019-05-25T01:32:02.253Z,17
2019-05-25T01:36:49.038Z,16.4
2019-05-25T01:41:38.241Z,16
2019-05-25T01:46:25.489Z,15.6
2019-05-25T01:51:12.622Z,15.4
2019-05-25T01:56:00.306Z,15.2
2019-05-25T02:00:48.159Z,15
2019-05-25T02:05:35.254Z,14.9
2019-05-25T02:09:36.753Z,17.8
2019-05-25T02:09:53.141Z,18.5
2019-05-25T02:10:09.330Z,18.8
2019-05-25T02:10:24.961Z,18.8
2019-05-25T02:10:40.545Z,19.1
2019-05-25T02:11:42.788Z,20.6
2019-05-25T02:16:30.236Z,21.3
2019-05-25T02:21:19.405Z,19.9
2019-05-25T02:26:06.497Z,18.5
2019-05-25T02:30:54.493Z,17.4
2019-05-25T02:35:41.886Z,16.5
2019-05-25T02:40:29.800Z,15.9
2019-05-25T02:45:16.914Z,15.5
2019-05-25T02:50:04.025Z,15.2
2019-05-25T02:54:04.609Z,18.1
2019-05-25T02:54:20.149Z,18.1
2019-05-25T02:54:35.699Z,18.5
2019-05-25T02:55:37.629Z,20
2019-05-25T03:00:24.525Z,20.8
2019-05-25T03:05:11.539Z,19.5
2019-05-25T03:09:58.553Z,18.1
2019-05-25T03:14:46.020Z,17
2019-05-25T03:19:32.819Z,16.2
2019-05-25T03:24:19.629Z,15.6
2019-05-25T03:28:20.240Z,18.4
2019-05-25T03:28:36.091Z,18.7
2019-05-25T03:28:52.260Z,18.7
2019-05-25T03:29:08.409Z,19.4
2019-05-25T03:30:13.050Z,20.4
2019-05-25T03:35:00.007Z,21.1
2019-05-25T03:39:47.030Z,19.6
2019-05-25T03:44:36.729Z,18.1
2019-05-25T03:49:24.101Z,16.9
2019-05-25T03:54:11.841Z,16.1
2019-05-25T03:58:58.740Z,15.4
2019-05-25T04:02:59.326Z,15.6
2019-05-25T04:03:14.861Z,15.8
2019-05-25T04:03:30.477Z,16
2019-05-25T04:03:46.040Z,16.3
2019-05-25T04:04:01.611Z,16.6
2019-05-25T04:04:17.160Z,16.8
2019-05-25T04:04:32.787Z,17.1
2019-05-25T04:04:48.345Z,17.5
2019-05-25T04:05:03.895Z,17.8
2019-05-25T04:05:19.447Z,18.1
2019-05-25T04:06:21.138Z,19.6
2019-05-25T04:11:08.158Z,20.2
2019-05-25T04:15:55.102Z,18.8
2019-05-25T04:20:42.507Z,17.4
2019-05-25T04:25:30.413Z,16.4
2019-05-25T04:30:17.533Z,15.7
2019-05-25T04:34:18.205Z,16.4
2019-05-25T04:34:33.742Z,16.7
2019-05-25T04:34:49.268Z,16.9
2019-05-25T04:35:04.855Z,17.3
2019-05-25T04:35:20.530Z,17.3
2019-05-25T04:35:36.103Z,17.6
2019-05-25T04:35:51.645Z,18
2019-05-25T04:36:07.169Z,18.6
2019-05-25T04:37:09.931Z,19.4
2019-05-25T04:41:57.512Z,20.3
2019-05-25T04:46:44.397Z,18.9
2019-05-25T04:51:31.654Z,17.6
2019-05-25T04:56:18.653Z,16.5
2019-05-25T05:01:05.959Z,15.9
2019-05-25T05:05:06.694Z,18.7
2019-05-25T05:06:08.941Z,20.2
2019-05-25T05:10:57.490Z,20.9
2019-05-25T05:15:44.891Z,19.5
2019-05-25T05:20:32.828Z,18.3
2019-05-25T05:25:20.139Z,17.3
2019-05-25T05:30:07.024Z,16.6
2019-05-25T05:34:53.767Z,16.1
2019-05-25T05:38:54.357Z,19.1
2019-05-25T05:39:09.916Z,19.2
2019-05-25T05:39:25.471Z,19.5
2019-05-25T05:40:27.616Z,21.1
2019-05-25T05:45:14.797Z,21.8
2019-05-25T05:50:01.719Z,20.4
2019-05-25T05:54:48.834Z,19.1
2019-05-25T05:59:36.059Z,18.1
2019-05-25T06:04:22.809Z,17.3
2019-05-25T06:09:10.557Z,16.8
2019-05-25T06:13:11.077Z,17.7
2019-05-25T06:13:26.668Z,17.9
2019-05-25T06:13:42.310Z,18.2
2019-05-25T06:13:57.907Z,18.5
2019-05-25T06:14:59.821Z,20.2
2019-05-25T06:19:46.584Z,21.3
2019-05-25T06:24:35.450Z,20.2
2019-05-25T06:29:22.745Z,19
2019-05-25T06:34:10.781Z,18.1
2019-05-25T06:38:57.761Z,17.5
2019-05-25T06:43:45.084Z,17.2
2019-05-25T06:47:45.720Z,19.7
2019-05-25T06:48:47.662Z,21.2
2019-05-25T06:53:34.606Z,22.2
2019-05-25T06:58:21.436Z,21.1
2019-05-25T07:03:08.674Z,19.9
2019-05-25T07:07:55.895Z,19
2019-05-25T07:12:42.973Z,18.5
2019-05-25T07:17:30.233Z,18.1
2019-05-25T07:22:16.972Z,17.7
2019-05-25T07:27:04.186Z,17.5
2019-05-25T07:31:51.454Z,21.3
2019-05-25T07:36:38.348Z,21.7
2019-05-25T07:41:25.321Z,20.8
2019-05-25T07:46:12.246Z,19.9
2019-05-25T07:50:59.121Z,19.3
2019-05-25T07:55:46.131Z,18.7
2019-05-25T08:00:33.294Z,18.5
2019-05-25T08:05:22.261Z,18.4
2019-05-25T08:10:09.552Z,18.3
2019-05-25T08:14:56.368Z,18.4
2019-05-25T08:19:43.909Z,18.4
2019-05-25T08:24:31.685Z,18.7
2019-05-25T08:29:18.610Z,18.8
2019-05-25T08:34:06.502Z,19
2019-05-25T08:38:54.872Z,19.1
2019-05-25T08:43:42.015Z,19.1
2019-05-25T08:48:29.922Z,19.3
2019-05-25T08:53:17.101Z,19.3
2019-05-25T08:58:04.197Z,19.3
2019-05-25T09:02:51.769Z,19.6
2019-05-25T09:07:38.924Z,19.7
2019-05-25T09:12:26.813Z,19.8
2019-05-25T09:17:14.125Z,19.9
2019-05-25T09:22:02.905Z,20.1
2019-05-25T09:26:51.268Z,20.3
2019-05-25T09:31:38.890Z,20.6
2019-05-25T09:36:26.054Z,20.6
2019-05-25T09:41:12.958Z,20.7
2019-05-25T09:46:03.226Z,20.8
2019-05-25T09:50:50.513Z,20.9
2019-05-25T09:55:37.480Z,21
2019-05-25T10:00:24.819Z,21.2
2019-05-25T10:05:11.761Z,21.2
2019-05-25T10:10:00.066Z,21.1
2019-05-25T10:14:49.399Z,21
2019-05-25T10:19:37.828Z,20.9
2019-05-25T10:24:27.127Z,20.9
2019-05-25T10:29:14.478Z,21.1
2019-05-25T10:34:01.677Z,21.4
2019-05-25T10:38:48.903Z,21.9
2019-05-25T10:43:36.279Z,22.2
2019-05-25T10:48:23.590Z,22.4
2019-05-25T10:53:10.901Z,22.3
2019-05-25T10:57:57.768Z,22.3
2019-05-25T11:02:47.039Z,22.5
2019-05-25T11:07:35.160Z,22.9
2019-05-25T11:12:26.028Z,22.7
2019-05-25T11:17:13.598Z,23
2019-05-25T11:22:01.352Z,22.7
2019-05-25T11:26:49.150Z,22.3
2019-05-25T11:31:36.658Z,22
2019-05-25T11:36:23.657Z,21.9
2019-05-25T11:41:10.877Z,22.2
2019-05-25T11:45:58.304Z,22.3
2019-05-25T11:50:45.504Z,22.5
2019-05-25T11:55:32.623Z,22.6
2019-05-25T12:00:24.936Z,22.5
2019-05-25T12:05:13.683Z,22.8
2019-05-25T12:10:01.608Z,23.2
2019-05-25T12:14:49.220Z,23.6
2019-05-25T12:19:37.909Z,23.9
2019-05-25T12:24:27.465Z,23.9
2019-05-25T12:29:14.548Z,23.9
2019-05-25T12:34:01.848Z,23.7
2019-05-25T12:38:49.453Z,24.1
2019-05-25T12:43:36.528Z,23.9
2019-05-25T12:48:24.475Z,23.6
2019-05-25T12:53:11.739Z,23.5
2019-05-25T12:57:58.870Z,23.6
2019-05-25T13:02:45.682Z,23.7
2019-05-25T13:07:32.607Z,23.9
2019-05-25T13:12:20.126Z,24.2
2019-05-25T13:17:07.385Z,24.1
2019-05-25T13:21:54.645Z,24.1
2019-05-25T13:26:42.066Z,24.7
2019-05-25T13:31:30.308Z,25.2
2019-05-25T13:36:17.712Z,25.3
2019-05-25T13:41:04.974Z,25.7
2019-05-25T13:45:51.899Z,25.9
2019-05-25T13:50:38.802Z,26.1
2019-05-25T13:55:26.493Z,25.9
2019-05-25T14:00:13.999Z,25.9
2019-05-25T14:05:00.794Z,25.9
2019-05-25T14:09:48.021Z,26.1
2019-05-25T14:14:34.860Z,26.3
2019-05-25T14:19:21.610Z,26.6
2019-05-25T14:24:08.821Z,26.3
2019-05-25T14:28:56.547Z,25.9
2019-05-25T14:33:43.933Z,25.2
2019-05-25T14:38:31.227Z,24.7
2019-05-25T14:43:18.627Z,24.5
2019-05-25T14:48:06.495Z,24.4
2019-05-25T14:52:53.671Z,24
2019-05-25T14:57:40.987Z,24.7
2019-05-25T15:02:28.983Z,25.4
2019-05-25T15:07:16.505Z,26.3
2019-05-25T15:12:03.675Z,26.4
2019-05-25T15:16:52.075Z,25.9
2019-05-25T15:21:39.310Z,26
2019-05-25T15:26:27.186Z,27
2019-05-25T15:31:14.829Z,27.6
2019-05-25T15:36:03.501Z,27.9
2019-05-25T15:40:51.097Z,27.9
2019-05-25T15:45:37.976Z,27.5
2019-05-25T15:50:25.020Z,27.3
2019-05-25T15:55:12.730Z,26.5
2019-05-25T15:59:59.942Z,25.5
2019-05-25T16:04:48.410Z,24.4
2019-05-25T16:09:35.481Z,23.6
2019-05-25T16:14:23.590Z,22.9
2019-05-25T16:19:12.753Z,22.4
2019-05-25T16:23:59.862Z,21.9
2019-05-25T16:28:47.506Z,21.7
2019-05-25T16:33:34.715Z,21.4
2019-05-25T16:38:21.762Z,21.1
2019-05-25T16:43:08.624Z,20.9
2019-05-25T16:47:56.522Z,20.7
2019-05-25T16:52:43.634Z,20.4
2019-05-25T16:57:30.934Z,20.2
2019-05-25T17:02:17.878Z,20
2019-05-25T17:07:05.933Z,19.9
2019-05-25T17:11:53.272Z,19.9
2019-05-25T17:16:41.116Z,19.9
2019-05-25T17:21:28.085Z,19.9
2019-05-25T17:26:16.459Z,19.9
2019-05-25T17:31:03.915Z,19.9
2019-05-25T17:35:51.755Z,19.8
2019-05-25T17:40:38.874Z,19.5
2019-05-25T17:45:26.866Z,19.2
2019-05-25T17:50:14.316Z,19
2019-05-25T17:55:01.258Z,18.8
2019-05-25T17:59:48.428Z,18.8
2019-05-25T18:04:35.752Z,18.7
2019-05-25T18:09:22.679Z,18.5
2019-05-25T18:14:09.654Z,18.4
2019-05-25T18:18:57.261Z,18.3
2019-05-25T18:23:44.982Z,18.3
2019-05-25T18:28:31.745Z,18.1
2019-05-25T18:33:19.090Z,18
2019-05-25T18:38:06.012Z,17.8
2019-05-25T18:42:55.768Z,17.6
2019-05-25T18:47:43.183Z,17.4
2019-05-25T18:52:29.971Z,17.2
2019-05-25T18:57:17.900Z,17
2019-05-25T19:02:06.113Z,16.8
2019-05-25T19:06:53.085Z,16.7
2019-05-25T19:11:40.552Z,16.5
2019-05-25T19:16:27.402Z,16.4
2019-05-25T19:21:14.382Z,16.3
2019-05-25T19:26:01.474Z,16.2
2019-05-25T19:30:48.393Z,16.1
2019-05-25T19:35:37.471Z,16
2019-05-25T19:40:24.633Z,15.8
2019-05-25T19:45:12.502Z,15.8
2019-05-25T19:50:04.668Z,15.7
2019-05-25T19:54:52.858Z,15.6
2019-05-25T19:59:39.696Z,15.5
2019-05-25T20:04:26.453Z,15.4
2019-05-25T20:08:27.016Z,18.1
2019-05-25T20:08:42.568Z,18.4
2019-05-25T20:08:58.243Z,18.8
2019-05-25T20:09:13.899Z,19.2
2019-05-25T20:10:16.047Z,20.6
2019-05-25T20:15:05.549Z,21.3
2019-05-25T20:19:52.990Z,20
2019-05-25T20:24:40.170Z,18.7
2019-05-25T20:29:27.984Z,17.5
2019-05-25T20:34:15.521Z,16.8
2019-05-25T20:39:03.147Z,16.2
2019-05-25T20:43:50.472Z,15.7
2019-05-25T20:48:37.386Z,15.4
2019-05-25T20:52:38.072Z,15.5
2019-05-25T20:52:53.649Z,15.7
2019-05-25T20:53:09.203Z,15.8
2019-05-25T20:53:24.749Z,16
2019-05-25T20:53:40.478Z,16.3
2019-05-25T20:53:56.045Z,16.5
2019-05-25T20:54:11.594Z,16.8
2019-05-25T20:54:27.137Z,17.1
2019-05-25T20:54:42.690Z,17.4
2019-05-25T20:54:59.370Z,17.4
2019-05-25T20:55:14.919Z,18
2019-05-25T20:55:30.458Z,18.1
2019-05-25T20:55:46.000Z,18.5
2019-05-25T20:56:01.531Z,18.8
2019-05-25T20:57:03.934Z,20.2
2019-05-25T21:01:50.921Z,20.9
2019-05-25T21:06:37.702Z,19.5
2019-05-25T21:11:24.982Z,18.2
2019-05-25T21:16:12.149Z,17.1
2019-05-25T21:21:00.074Z,16.2
2019-05-25T21:25:47.522Z,15.6
2019-05-25T21:30:34.400Z,15.1
2019-05-25T21:34:35.050Z,18.1
2019-05-25T21:34:50.596Z,18.1
2019-05-25T21:35:06.144Z,18.1
2019-05-25T21:35:21.680Z,18.5
2019-05-25T21:36:23.973Z,19.9
2019-05-25T21:41:10.898Z,20.5
2019-05-25T21:45:57.800Z,19
2019-05-25T21:50:45.407Z,17.7
2019-05-25T21:55:34.413Z,16.5
2019-05-25T22:00:23.365Z,15.6
2019-05-25T22:05:10.657Z,15
2019-05-25T22:09:11.398Z,18.2
2019-05-25T22:09:27.181Z,18.2
2019-05-25T22:09:43.250Z,18.6
2019-05-25T22:09:59.381Z,18.6
2019-05-25T22:11:03.802Z,20
2019-05-25T22:15:51.243Z,20.6
2019-05-25T22:20:38.098Z,18.9
2019-05-25T22:25:25.405Z,17.3
2019-05-25T22:30:12.218Z,16.1
2019-05-25T22:34:58.986Z,15.2
2019-05-25T22:39:45.999Z,14.5
2019-05-25T22:43:47.662Z,17.8
2019-05-25T22:44:03.875Z,17.8
2019-05-25T22:44:19.896Z,18.5
2019-05-25T22:44:35.458Z,18.8
2019-05-25T22:45:39.740Z,20.4
2019-05-25T22:50:27.092Z,20.4
2019-05-25T22:55:14.529Z,18.7
2019-05-25T23:00:01.773Z,17.2
2019-05-25T23:04:48.948Z,15.9
2019-05-25T23:09:36.726Z,14.9
2019-05-25T23:13:37.284Z,14.3
2019-05-25T23:13:52.816Z,14.3
2019-05-25T23:14:09.984Z,14.3
2019-05-25T23:14:25.727Z,14.4
2019-05-25T23:14:41.272Z,14.7
2019-05-25T23:14:56.956Z,14.8
2019-05-25T23:15:12.505Z,15
2019-05-25T23:15:28.130Z,15.3
2019-05-25T23:15:43.686Z,15.6
2019-05-25T23:15:59.256Z,15.9
2019-05-25T23:16:14.803Z,16.3
2019-05-25T23:16:30.354Z,16.3
2019-05-25T23:16:45.977Z,16.6
2019-05-25T23:17:01.548Z,17
2019-05-25T23:17:17.112Z,17.4
2019-05-25T23:17:32.660Z,17.7
2019-05-25T23:18:34.853Z,19.5
2019-05-25T23:23:22.478Z,20
2019-05-25T23:28:09.600Z,18.4
2019-05-25T23:32:57.286Z,16.8
2019-05-25T23:37:45.036Z,15.5
2019-05-25T23:42:31.976Z,14.6
2019-05-25T23:46:32.550Z,16.9
2019-05-25T23:46:48.099Z,17.3
2019-05-25T23:47:03.642Z,17.6
2019-05-25T23:48:05.593Z,19.1
2019-05-25T23:52:53.271Z,19.6
2019-05-25T23:57:40.293Z,17.9
